createdAt,value
2018-07-08T00:01:39.474Z,9.00
2018-07-08T00:04:08.770Z,8.60
2018-07-08T00:06:38.138Z,8.87
2018-07-08T00:09:08.263Z,9.17
2018-07-08T00:11:37.658Z,9.37
2018-07-08T00:14:07.053Z,9.03
2018-07-08T00:16:36.399Z,9.70
2018-07-08T00:19:05.743Z,9.00
2018-07-08T00:21:35.070Z,8.70
2018-07-08T00:24:04.454Z,9.33
2018-07-08T00:26:34.785Z,8.77
2018-07-08T00:29:04.529Z,8.90
2018-07-08T00:31:33.914Z,9.70
2018-07-08T00:34:03.296Z,9.10
2018-07-08T00:36:33.012Z,9.30
2018-07-08T00:39:02.977Z,8.40
2018-07-08T00:41:32.610Z,9.37
2018-07-08T00:44:02.010Z,8.43
2018-07-08T00:46:31.383Z,9.17
2018-07-08T00:49:00.717Z,9.17
2018-07-08T00:51:30.098Z,9.90
2018-07-08T00:53:59.763Z,8.73
2018-07-08T00:56:29.102Z,9.00
2018-07-08T00:58:58.627Z,9.03
2018-07-08T01:01:28.065Z,9.37
2018-07-08T01:03:57.472Z,9.80
2018-07-08T01:06:26.843Z,8.73
2018-07-08T01:08:56.349Z,9.40
2018-07-08T01:11:25.735Z,9.07
2018-07-08T01:13:55.091Z,9.97
2018-07-08T01:16:24.456Z,9.20
2018-07-08T01:18:54.139Z,9.23
2018-07-08T01:21:23.502Z,9.67
2018-07-08T01:23:52.870Z,9.47
2018-07-08T01:26:22.217Z,9.70
2018-07-08T01:28:51.561Z,9.47
2018-07-08T01:31:21.493Z,9.60
2018-07-08T01:33:50.841Z,9.23
2018-07-08T01:36:20.497Z,9.30
2018-07-08T01:38:49.809Z,10.60
2018-07-08T01:41:19.165Z,9.83
2018-07-08T01:43:48.545Z,9.27
2018-07-08T01:46:17.965Z,10.17
2018-07-08T01:48:47.323Z,10.03
2018-07-08T01:51:16.757Z,9.60
2018-07-08T01:53:46.134Z,9.87
2018-07-08T01:56:15.553Z,9.27
2018-07-08T01:58:44.946Z,10.20
2018-07-08T02:01:14.329Z,10.00
2018-07-08T02:03:43.758Z,9.90
2018-07-08T02:06:13.157Z,9.50
2018-07-08T02:08:42.533Z,10.23
2018-07-08T02:11:11.866Z,9.43
2018-07-08T02:13:41.320Z,9.53
2018-07-08T02:16:10.683Z,9.53
2018-07-08T02:18:40.110Z,9.90
2018-07-08T02:21:09.525Z,9.63
2018-07-08T02:23:38.918Z,9.57
2018-07-08T02:26:08.738Z,9.73
2018-07-08T02:28:38.133Z,9.47
2018-07-08T02:31:08.597Z,9.50
2018-07-08T02:33:37.947Z,9.53
2018-07-08T02:36:07.287Z,9.27
2018-07-08T02:38:36.766Z,9.70
2018-07-08T02:41:06.314Z,9.73
2018-07-08T02:43:35.790Z,9.40
2018-07-08T02:46:05.227Z,9.67
2018-07-08T02:48:34.580Z,9.80
2018-07-08T02:51:03.950Z,9.40
2018-07-08T02:53:33.338Z,9.67
2018-07-08T02:56:02.715Z,9.30
2018-07-08T02:58:32.074Z,9.27
2018-07-08T03:01:01.396Z,9.00
2018-07-08T03:03:30.765Z,9.83
2018-07-08T03:06:00.142Z,9.33
2018-07-08T03:08:29.630Z,9.60
2018-07-08T03:10:59.299Z,9.43
2018-07-08T03:13:28.747Z,9.20
2018-07-08T03:15:58.296Z,10.10
2018-07-08T03:18:28.309Z,9.47
2018-07-08T03:20:57.673Z,9.83
2018-07-08T03:23:27.033Z,9.37
2018-07-08T03:25:56.425Z,9.53
2018-07-08T03:28:25.811Z,9.77
2018-07-08T03:30:55.159Z,9.47
2018-07-08T03:33:24.584Z,9.70
2018-07-08T03:35:53.895Z,9.97
2018-07-08T03:38:23.571Z,9.80
2018-07-08T03:40:53.188Z,9.73
2018-07-08T03:43:22.558Z,9.40
2018-07-08T03:45:51.949Z,9.53
2018-07-08T03:48:21.288Z,9.60
2018-07-08T03:50:50.504Z,9.27
2018-07-08T03:53:19.841Z,9.63
2018-07-08T03:55:49.149Z,10.20
2018-07-08T03:58:18.510Z,9.57
2018-07-08T04:00:47.950Z,9.63
2018-07-08T04:03:17.369Z,9.77
2018-07-08T04:05:46.695Z,10.03
2018-07-08T04:08:17.130Z,9.10
2018-07-08T04:10:46.493Z,9.37
2018-07-08T04:13:16.944Z,9.63
2018-07-08T04:15:47.273Z,9.47
2018-07-08T04:18:16.677Z,8.87
2018-07-08T04:20:46.041Z,9.03
2018-07-08T04:23:15.401Z,9.17
2018-07-08T04:25:44.748Z,9.43
2018-07-08T04:28:14.115Z,9.40
2018-07-08T04:30:43.485Z,9.03
2018-07-08T04:33:12.842Z,9.50
2018-07-08T04:35:42.186Z,9.37
2018-07-08T04:38:11.690Z,9.40
2018-07-08T04:40:41.014Z,10.70
2018-07-08T04:43:11.261Z,10.10
2018-07-08T04:45:40.576Z,9.60
2018-07-08T04:48:09.916Z,9.53
2018-07-08T04:50:39.261Z,10.20
2018-07-08T04:53:08.628Z,10.10
2018-07-08T04:55:37.999Z,9.60
2018-07-08T04:58:07.328Z,9.20
2018-07-08T05:00:36.921Z,9.53
2018-07-08T05:03:06.438Z,9.23
2018-07-08T05:05:35.856Z,10.00
2018-07-08T05:08:05.193Z,9.40
2018-07-08T05:10:34.605Z,9.73
2018-07-08T05:13:03.981Z,9.27
2018-07-08T05:15:33.339Z,9.97
2018-07-08T05:18:02.914Z,10.17
2018-07-08T05:20:32.324Z,9.70
2018-07-08T05:23:01.677Z,9.80
2018-07-08T05:25:31.072Z,9.70
2018-07-08T05:28:00.502Z,9.20
2018-07-08T05:30:29.981Z,9.63
2018-07-08T05:32:59.563Z,9.87
2018-07-08T05:35:29.015Z,10.07
2018-07-08T05:37:58.441Z,10.20
2018-07-08T05:40:27.826Z,10.23
2018-07-08T05:42:57.200Z,10.17
2018-07-08T05:45:26.605Z,10.27
2018-07-08T05:47:55.962Z,9.50
2018-07-08T05:50:25.399Z,9.60
2018-07-08T05:52:55.178Z,9.63
2018-07-08T05:55:24.561Z,10.13
2018-07-08T05:57:53.919Z,9.87
2018-07-08T06:00:24.243Z,9.17
2018-07-08T06:02:53.709Z,9.90
2018-07-08T06:05:23.118Z,10.37
2018-07-08T06:07:52.477Z,10.10
2018-07-08T06:10:21.946Z,9.83
2018-07-08T06:12:51.265Z,9.07
2018-07-08T06:15:20.725Z,9.83
2018-07-08T06:17:50.050Z,9.93
2018-07-08T06:20:19.402Z,9.43
2018-07-08T06:22:48.830Z,10.27
2018-07-08T06:25:18.181Z,9.90
2018-07-08T06:27:47.606Z,9.97
2018-07-08T06:30:17.002Z,10.60
2018-07-08T06:32:46.455Z,10.60
2018-07-08T06:35:15.887Z,10.13
2018-07-08T06:37:45.268Z,9.70
2018-07-08T06:40:14.684Z,8.80
2018-07-08T06:42:43.782Z,9.30
2018-07-08T06:45:13.223Z,9.50
2018-07-08T06:47:42.813Z,10.00
2018-07-08T06:50:12.234Z,9.27
2018-07-08T06:52:41.601Z,8.23
2018-07-08T06:55:10.972Z,9.50
2018-07-08T06:57:40.350Z,8.53
2018-07-08T07:00:10.121Z,8.87
2018-07-08T07:02:39.641Z,8.80
2018-07-08T07:05:09.022Z,9.13
2018-07-08T07:07:38.393Z,9.20
2018-07-08T07:10:08.145Z,8.53
2018-07-08T07:12:37.577Z,9.00
2018-07-08T07:15:06.951Z,8.90
2018-07-08T07:17:36.308Z,9.03
2018-07-08T07:20:05.738Z,8.43
2018-07-08T07:22:35.121Z,8.13
2018-07-08T07:25:04.570Z,8.20
2018-07-08T07:27:33.950Z,8.20
2018-07-08T07:30:03.373Z,8.47
2018-07-08T07:32:32.769Z,8.13
2018-07-08T07:35:02.455Z,8.50
2018-07-08T07:37:31.803Z,8.10
2018-07-08T07:40:01.355Z,8.77
2018-07-08T07:42:30.980Z,8.67
2018-07-08T07:45:00.501Z,9.17
2018-07-08T07:47:29.936Z,8.90
2018-07-08T07:49:59.469Z,9.60
2018-07-08T07:52:28.927Z,8.60
2018-07-08T07:54:58.718Z,8.63
2018-07-08T07:57:28.173Z,8.97
2018-07-08T07:59:57.618Z,8.97
2018-07-08T08:02:27.022Z,9.40
2018-07-08T08:04:56.394Z,8.87
2018-07-08T08:07:25.762Z,8.90
2018-07-08T08:09:55.099Z,9.37
2018-07-08T08:12:24.496Z,8.90
2018-07-08T08:14:53.894Z,8.73
2018-07-08T08:17:23.313Z,9.47
2018-07-08T08:19:52.726Z,9.00
2018-07-08T08:22:22.104Z,9.50
2018-07-08T08:24:51.661Z,10.33
2018-07-08T08:27:21.021Z,8.93
2018-07-08T08:29:49.508Z,8.53
2018-07-08T08:32:18.976Z,8.43
2018-07-08T08:34:53.238Z,8.03
2018-07-08T08:37:24.788Z,8.53
2018-07-08T08:39:54.720Z,8.63
2018-07-08T08:42:24.227Z,9.27
2018-07-08T08:44:54.605Z,8.18
2018-07-08T08:47:24.557Z,9.00
2018-07-08T08:49:54.401Z,8.07
2018-07-08T08:52:24.782Z,7.70
2018-07-08T08:54:55.196Z,7.37
2018-07-08T08:57:24.588Z,7.75
2018-07-08T08:59:54.303Z,7.20
2018-07-08T09:02:23.685Z,7.07
2018-07-08T09:04:53.072Z,7.10
2018-07-08T09:07:22.981Z,6.53
2018-07-08T09:09:52.403Z,7.28
2018-07-08T09:12:21.910Z,6.73
2018-07-08T09:14:51.246Z,6.58
2018-07-08T09:17:20.659Z,6.13
2018-07-08T09:19:50.072Z,5.95
2018-07-08T09:22:19.581Z,5.72
2018-07-08T09:24:49.039Z,6.30
2018-07-08T09:27:18.405Z,5.65
2018-07-08T09:29:47.753Z,5.53
2018-07-08T09:32:17.125Z,5.97
2018-07-08T09:34:46.453Z,5.90
2018-07-08T09:37:15.882Z,5.28
2018-07-08T09:39:45.261Z,5.55
2018-07-08T09:42:14.596Z,5.35
2018-07-08T09:44:43.943Z,9.27
2018-07-08T09:47:13.318Z,6.40
2018-07-08T09:49:42.698Z,5.30
2018-07-08T09:52:12.039Z,5.37
2018-07-08T09:54:41.477Z,5.62
2018-07-08T09:57:10.863Z,13.28
2018-07-08T09:59:40.240Z,5.53
2018-07-08T10:02:09.670Z,4.47
2018-07-08T10:04:39.135Z,4.58
2018-07-08T10:07:08.432Z,4.92
2018-07-08T10:09:37.778Z,4.33
2018-07-08T10:12:07.407Z,3.67
2018-07-08T10:14:36.959Z,4.62
2018-07-08T10:17:06.391Z,16.15
2018-07-08T10:19:35.759Z,7.85
2018-07-08T10:22:05.110Z,4.12
2018-07-08T10:24:34.413Z,3.65
2018-07-08T10:28:14.282Z,3.50
2018-07-08T10:30:43.963Z,15.23
2018-07-08T10:33:13.301Z,7.83
2018-07-08T10:36:03.516Z,3.80
2018-07-08T10:38:33.913Z,4.10
2018-07-08T10:41:03.241Z,3.60
2018-07-08T10:43:32.577Z,3.47
2018-07-08T10:46:01.917Z,3.77
2018-07-08T10:48:31.279Z,3.40
2018-07-08T10:51:00.595Z,4.45
2018-07-08T10:53:30.111Z,4.50
2018-07-08T10:55:59.590Z,3.92
2018-07-08T10:58:28.998Z,3.90
2018-07-08T11:00:58.431Z,3.67
2018-07-08T11:03:27.845Z,3.83
2018-07-08T11:05:57.341Z,3.98
2018-07-08T11:08:27.642Z,3.52
2018-07-08T11:10:57.053Z,3.80
2018-07-08T11:13:26.409Z,3.70
2018-07-08T11:15:55.569Z,4.00
2018-07-08T11:18:24.949Z,6.53
2018-07-08T11:20:54.347Z,4.83
2018-07-08T11:23:23.706Z,4.03
2018-07-08T11:25:53.102Z,4.05
2018-07-08T11:28:22.493Z,3.80
2018-07-08T11:30:51.894Z,3.90
2018-07-08T11:33:21.239Z,4.08
2018-07-08T11:35:50.653Z,3.98
2018-07-08T11:38:20.029Z,6.08
2018-07-08T11:40:49.461Z,4.70
2018-07-08T11:43:18.819Z,4.53
2018-07-08T11:45:48.289Z,4.20
2018-07-08T11:48:17.653Z,4.30
2018-07-08T11:50:46.969Z,3.98
2018-07-08T11:53:16.330Z,4.20
2018-07-08T11:55:45.673Z,4.80
2018-07-08T11:58:15.035Z,5.33
2018-07-08T12:00:44.377Z,4.10
2018-07-08T12:03:13.730Z,3.70
2018-07-08T12:05:43.199Z,4.30
2018-07-08T12:08:12.522Z,3.80
2018-07-08T12:10:41.893Z,4.08
2018-07-08T12:13:11.332Z,4.37
2018-07-08T12:15:40.699Z,4.10
2018-07-08T12:18:10.059Z,3.52
2018-07-08T12:20:39.845Z,4.87
2018-07-08T12:23:09.188Z,4.05
2018-07-08T12:25:38.492Z,3.50
2018-07-08T12:28:07.860Z,3.27
2018-07-08T12:30:37.372Z,3.80
2018-07-08T12:33:07.424Z,3.47
2018-07-08T12:35:36.815Z,3.70
2018-07-08T12:38:06.324Z,24.47
2018-07-08T12:40:35.727Z,3.37
2018-07-08T12:43:05.150Z,3.40
2018-07-08T12:45:34.671Z,3.67
2018-07-08T12:48:04.031Z,3.42
2018-07-08T12:50:33.549Z,2.90
2018-07-08T12:53:02.949Z,3.43
2018-07-08T12:55:32.372Z,3.40
2018-07-08T12:58:01.766Z,3.47
2018-07-08T13:00:31.265Z,3.55
2018-07-08T13:03:00.618Z,3.58
2018-07-08T13:05:29.998Z,2.83
2018-07-08T13:07:59.423Z,2.98
2018-07-08T13:10:29.063Z,2.80
2018-07-08T13:12:58.862Z,2.95
2018-07-08T13:15:28.486Z,2.67
2018-07-08T13:17:57.873Z,2.70
2018-07-08T13:20:27.301Z,2.40
2018-07-08T13:22:56.689Z,2.80
2018-07-08T13:25:25.794Z,2.83
2018-07-08T13:27:55.188Z,2.98
2018-07-08T13:30:24.559Z,2.90
2018-07-08T13:32:53.905Z,2.80
2018-07-08T13:35:23.281Z,3.17
2018-07-08T13:37:52.637Z,2.77
2018-07-08T13:40:21.998Z,3.08
2018-07-08T13:42:51.373Z,3.08
2018-07-08T13:45:20.695Z,3.33
2018-07-08T13:47:50.017Z,2.47
2018-07-08T13:50:19.377Z,2.77
2018-07-08T13:52:48.741Z,2.72
2018-07-08T13:55:18.095Z,2.70
2018-07-08T13:57:47.466Z,2.60
2018-07-08T14:00:16.806Z,2.52
2018-07-08T14:02:46.246Z,2.62
2018-07-08T14:05:15.636Z,2.50
2018-07-08T14:07:45.476Z,2.70
2018-07-08T14:10:14.895Z,2.50
2018-07-08T14:12:44.368Z,2.42
2018-07-08T14:15:13.736Z,2.72
2018-07-08T14:17:43.120Z,2.30
2018-07-08T14:20:12.526Z,2.20
2018-07-08T14:22:41.864Z,2.58
2018-07-08T14:25:11.347Z,2.72
2018-07-08T14:27:40.744Z,2.37
2018-07-08T14:30:10.282Z,2.35
2018-07-08T14:32:39.649Z,2.20
2018-07-08T14:35:09.258Z,2.30
2018-07-08T14:37:38.626Z,2.33
2018-07-08T14:40:07.999Z,2.58
2018-07-08T14:42:50.706Z,1.90
2018-07-08T14:45:20.081Z,2.35
2018-07-08T14:47:49.811Z,2.40
2018-07-08T14:50:20.141Z,2.20
2018-07-08T14:52:49.538Z,2.52
2018-07-08T14:55:18.867Z,2.17
2018-07-08T14:57:48.245Z,2.30
2018-07-08T15:00:17.597Z,2.20
2018-07-08T15:02:46.940Z,2.30
2018-07-08T15:05:16.450Z,2.20
2018-07-08T15:07:45.852Z,2.30
2018-07-08T15:10:15.262Z,2.20
2018-07-08T15:12:44.727Z,2.05
2018-07-08T15:15:14.275Z,2.72
2018-07-08T15:17:43.646Z,2.40
2018-07-08T15:20:13.005Z,2.10
2018-07-08T15:22:42.359Z,2.02
2018-07-08T15:25:11.673Z,2.02
2018-07-08T15:27:41.060Z,2.45
2018-07-08T15:30:10.390Z,2.75
2018-07-08T15:32:40.452Z,2.30
2018-07-08T15:35:09.899Z,2.10
2018-07-08T15:37:40.357Z,2.20
2018-07-08T15:40:10.108Z,2.40
2018-07-08T15:42:39.508Z,2.08
2018-07-08T15:45:08.994Z,1.98
2018-07-08T15:47:38.341Z,2.20
2018-07-08T15:50:07.821Z,2.12
2018-07-08T15:52:37.229Z,2.40
2018-07-08T15:55:06.581Z,2.40
2018-07-08T15:57:35.931Z,2.00
2018-07-08T16:00:05.701Z,2.20
2018-07-08T16:02:35.139Z,2.15
2018-07-08T16:05:04.654Z,1.70
2018-07-08T16:07:34.062Z,2.22
2018-07-08T16:10:03.539Z,2.55
2018-07-08T16:12:33.018Z,2.40
2018-07-08T16:15:02.515Z,2.20
2018-07-08T16:17:32.213Z,1.98
2018-07-08T16:20:01.949Z,2.00
2018-07-08T16:22:31.376Z,1.70
2018-07-08T16:25:00.762Z,2.20
2018-07-08T16:27:30.224Z,1.98
2018-07-08T16:29:59.663Z,2.05
2018-07-08T16:32:29.947Z,1.80
2018-07-08T16:34:59.754Z,2.00
2018-07-08T16:37:30.659Z,2.30
2018-07-08T16:40:02.223Z,2.20
2018-07-08T16:42:32.490Z,2.20
2018-07-08T16:45:05.862Z,2.00
2018-07-08T16:47:35.471Z,2.20
2018-07-08T16:50:06.085Z,2.17
2018-07-08T16:52:35.629Z,1.80
2018-07-08T16:55:05.158Z,1.70
2018-07-08T16:57:34.884Z,2.08
2018-07-08T17:00:04.933Z,1.80
2018-07-08T17:02:34.454Z,1.95
2018-07-08T17:05:04.185Z,1.90
2018-07-08T17:07:33.639Z,2.50
2018-07-08T17:10:03.297Z,2.27
2018-07-08T17:12:32.836Z,1.70
2018-07-08T17:15:02.296Z,2.20
2018-07-08T17:17:32.576Z,2.10
2018-07-08T17:20:02.173Z,2.20
2018-07-08T17:22:31.822Z,2.00
2018-07-08T17:25:01.387Z,2.00
2018-07-08T17:27:31.022Z,1.90
2018-07-08T17:30:00.667Z,2.20
2018-07-08T17:32:30.318Z,2.20
2018-07-08T17:34:59.816Z,2.03
2018-07-08T17:37:29.460Z,1.80
2018-07-08T17:39:59.872Z,1.70
2018-07-08T17:42:29.388Z,1.73
2018-07-08T17:44:58.785Z,4.20
2018-07-08T17:47:28.122Z,2.80
2018-07-08T17:49:57.870Z,1.77
2018-07-08T17:52:27.463Z,1.93
2018-07-08T17:54:56.959Z,1.95
2018-07-08T17:57:26.338Z,2.07
2018-07-08T17:59:55.856Z,3.40
2018-07-08T18:02:25.364Z,3.85
2018-07-08T18:04:54.928Z,3.52
2018-07-08T18:07:24.418Z,5.15
2018-07-08T18:09:53.890Z,2.70
2018-07-08T18:12:23.399Z,4.80
2018-07-08T18:14:53.851Z,2.40
2018-07-08T18:17:23.218Z,4.08
2018-07-08T18:19:52.762Z,2.57
2018-07-08T18:22:22.227Z,1.70
2018-07-08T18:24:51.660Z,1.87
2018-07-08T18:27:21.071Z,2.20
2018-07-08T18:29:50.455Z,2.00
2018-07-08T18:32:20.059Z,12.00
2018-07-08T18:34:49.444Z,4.20
2018-07-08T18:37:18.916Z,4.40
2018-07-08T18:39:50.402Z,11.20
2018-07-08T18:42:19.926Z,3.50
2018-07-08T18:44:49.342Z,2.62
2018-07-08T18:47:18.495Z,1.80
2018-07-08T18:49:47.924Z,2.50
2018-07-08T18:52:17.644Z,2.50
2018-07-08T18:54:47.199Z,3.00
2018-07-08T18:57:16.719Z,5.63
2018-07-08T19:02:46.373Z,6.77
2018-07-08T19:05:15.835Z,4.70
2018-07-08T19:07:45.269Z,4.70
2018-07-08T19:10:14.678Z,2.33
2018-07-08T19:12:44.184Z,2.80
2018-07-08T19:15:13.671Z,4.33
2018-07-08T19:17:43.192Z,3.63
2018-07-08T19:20:12.588Z,5.20
2018-07-08T19:22:41.965Z,3.13
2018-07-08T19:25:11.500Z,2.90
2018-07-08T19:27:40.996Z,2.83
2018-07-08T19:30:11.436Z,2.70
2018-07-08T19:32:41.164Z,19.90
2018-07-08T19:35:09.617Z,12.90
2018-07-08T19:37:39.019Z,9.53
2018-07-08T19:40:08.437Z,2.90
2018-07-08T19:42:37.943Z,3.03
2018-07-08T19:45:07.385Z,30.77
2018-07-08T19:47:36.908Z,14.17
2018-07-08T19:50:06.328Z,5.87
2018-07-08T19:52:35.905Z,3.13
2018-07-08T19:55:05.437Z,3.20
2018-07-08T19:57:34.999Z,2.40
2018-07-08T20:00:04.771Z,2.53
2018-07-08T20:02:35.242Z,2.20
2018-07-08T20:05:04.748Z,2.70
2018-07-08T20:07:34.296Z,2.23
2018-07-08T20:10:03.840Z,2.60
2018-07-08T20:12:33.343Z,3.70
2018-07-08T20:15:03.073Z,6.90
2018-07-08T20:17:34.298Z,6.30
2018-07-08T20:20:04.006Z,3.60
2018-07-08T20:22:34.833Z,3.67
2018-07-08T20:25:04.425Z,3.00
2018-07-08T20:27:33.871Z,2.80
2018-07-08T20:30:03.470Z,3.07
2018-07-08T20:32:32.979Z,2.97
2018-07-08T20:35:02.262Z,3.03
2018-07-08T20:37:31.759Z,2.80
2018-07-08T20:40:01.360Z,2.90
2018-07-08T20:42:31.246Z,2.80
2018-07-08T20:45:00.717Z,3.00
2018-07-08T20:47:30.614Z,3.10
2018-07-08T20:50:00.407Z,3.30
2018-07-08T20:52:30.251Z,2.83
2018-07-08T20:55:01.505Z,3.10
2018-07-08T20:57:31.090Z,2.80
2018-07-08T21:00:00.765Z,2.73
2018-07-08T21:02:30.821Z,3.33
2018-07-08T21:05:00.344Z,2.90
2018-07-08T21:07:30.143Z,3.27
2018-07-08T21:09:59.756Z,10.37
2018-07-08T21:12:29.353Z,17.70
2018-07-08T21:14:58.832Z,10.37
2018-07-08T21:17:28.405Z,5.30
2018-07-08T21:19:58.121Z,3.97
2018-07-08T21:22:27.633Z,3.50
2018-07-08T21:24:57.144Z,3.60
2018-07-08T21:27:26.571Z,3.50
2018-07-08T21:29:56.512Z,3.67
2018-07-08T21:32:26.163Z,3.30
2018-07-08T21:34:56.467Z,3.30
2018-07-08T21:37:27.975Z,2.77
2018-07-08T21:39:57.608Z,2.80
2018-07-08T21:42:27.380Z,3.33
2018-07-08T21:44:56.936Z,3.70
2018-07-08T21:47:26.496Z,3.50
2018-07-08T21:49:57.359Z,3.80
2018-07-08T21:52:27.214Z,3.80
2018-07-08T21:54:56.718Z,3.80
2018-07-08T21:57:26.468Z,14.00
2018-07-08T21:59:55.789Z,7.37
2018-07-08T22:02:25.280Z,4.90
2018-07-08T22:04:54.714Z,3.53
2018-07-08T22:07:25.472Z,3.60
2018-07-08T22:09:54.802Z,3.67
2018-07-08T22:12:24.757Z,3.60
2018-07-08T22:14:54.271Z,36.93
2018-07-08T22:17:23.663Z,21.23
2018-07-08T22:19:53.005Z,5.80
2018-07-08T22:22:22.362Z,4.67
2018-07-08T22:24:52.042Z,4.00
2018-07-08T22:27:21.478Z,3.47
2018-07-08T22:29:50.844Z,3.70
2018-07-08T22:32:20.030Z,3.10
2018-07-08T22:34:49.437Z,3.47
2018-07-08T22:37:18.851Z,3.30
2018-07-08T22:39:48.590Z,3.63
2018-07-08T22:42:17.989Z,3.07
2018-07-08T22:44:47.689Z,3.40
2018-07-08T22:47:17.192Z,3.23
2018-07-08T22:49:46.696Z,3.27
2018-07-08T22:52:16.187Z,3.93
2018-07-08T22:54:45.828Z,3.70
2018-07-08T22:57:15.238Z,3.70
2018-07-08T23:01:03.218Z,3.80
2018-07-08T23:03:54.900Z,3.17
2018-07-08T23:06:24.324Z,3.07
2018-07-08T23:08:54.209Z,3.07
2018-07-08T23:11:24.659Z,3.70
2018-07-08T23:13:55.536Z,3.10
2018-07-08T23:16:25.798Z,3.00
2018-07-08T23:18:55.168Z,3.20
2018-07-08T23:21:24.536Z,3.10
2018-07-08T23:23:53.924Z,2.87
2018-07-08T23:26:23.327Z,2.80
2018-07-08T23:28:53.316Z,2.93
2018-07-08T23:31:22.702Z,3.03
2018-07-08T23:33:52.652Z,2.80
2018-07-08T23:36:22.000Z,2.97
2018-07-08T23:38:51.361Z,2.83
2018-07-08T23:41:20.746Z,2.90
2018-07-08T23:43:50.138Z,2.80
2018-07-08T23:46:19.464Z,2.80
2018-07-08T23:48:48.799Z,3.00
2018-07-08T23:51:18.222Z,2.73
2018-07-08T23:53:47.626Z,2.83
2018-07-08T23:56:16.972Z,3.00
2018-07-08T23:58:46.603Z,2.70
